sensor_id;sensor_type;location;lat;lon;timestamp;P1;durP1;ratioP1;P2;durP2;ratioP2
2674;SDS011;1347;42.122;24.746;2023-12-07T00:00:16;25.60;;;16.80;;
2674;SDS011;1347;42.122;24.746;2023-12-07T00:02:43;22.73;;;15.07;;
2674;SDS011;1347;42.122;24.746;2023-12-07T00:05:10;23.97;;;17.33;;
2674;SDS011;1347;42.122;24.746;2023-12-07T00:07:37;26.10;;;16.60;;
2674;SDS011;1347;42.122;24.746;2023-12-07T00:10:04;26.53;;;14.13;;
2674;SDS011;1347;42.122;24.746;2023-12-07T00:12:32;24.20;;;15.77;;
2674;SDS011;1347;42.122;24.746;2023-12-07T00:14:58;21.23;;;16.50;;
2674;SDS011;1347;42.122;24.746;2023-12-07T00:17:27;22.47;;;15.70;;
2674;SDS011;1347;42.122;24.746;2023-12-07T00:19:53;24.83;;;16.00;;
2674;SDS011;1347;42.122;24.746;2023-12-07T00:22:20;23.03;;;15.30;;
2674;SDS011;1347;42.122;24.746;2023-12-07T00:24:49;27.00;;;17.63;;
2674;SDS011;1347;42.122;24.746;2023-12-07T00:27:16;20.20;;;14.87;;
2674;SDS011;1347;42.122;24.746;2023-12-07T00:29:43;26.00;;;16.30;;
2674;SDS011;1347;42.122;24.746;2023-12-07T00:32:10;24.17;;;17.57;;
2674;SDS011;1347;42.122;24.746;2023-12-07T00:34:38;23.80;;;15.97;;
2674;SDS011;1347;42.122;24.746;2023-12-07T00:37:05;26.27;;;15.40;;
2674;SDS011;1347;42.122;24.746;2023-12-07T00:39:32;27.37;;;16.50;;
2674;SDS011;1347;42.122;24.746;2023-12-07T00:41:59;24.63;;;17.40;;
2674;SDS011;1347;42.122;24.746;2023-12-07T00:44:26;25.00;;;16.37;;
2674;SDS011;1347;42.122;24.746;2023-12-07T00:46:52;21.70;;;15.20;;
2674;SDS011;1347;42.122;24.746;2023-12-07T00:49:19;22.03;;;16.17;;
2674;SDS011;1347;42.122;24.746;2023-12-07T00:51:47;21.27;;;15.77;;
2674;SDS011;1347;42.122;24.746;2023-12-07T00:54:14;22.90;;;14.50;;
2674;SDS011;1347;42.122;24.746;2023-12-07T00:56:41;27.00;;;16.00;;
2674;SDS011;1347;42.122;24.746;2023-12-07T00:59:08;22.23;;;16.03;;
2674;SDS011;1347;42.122;24.746;2023-12-07T01:01:35;21.00;;;15.30;;
2674;SDS011;1347;42.122;24.746;2023-12-07T01:04:03;23.33;;;17.30;;
2674;SDS011;1347;42.122;24.746;2023-12-07T01:06:30;21.03;;;15.27;;
2674;SDS011;1347;42.122;24.746;2023-12-07T01:08:59;20.47;;;15.90;;
2674;SDS011;1347;42.122;24.746;2023-12-07T01:11:25;21.30;;;15.83;;
2674;SDS011;1347;42.122;24.746;2023-12-07T01:13:52;20.60;;;15.77;;
2674;SDS011;1347;42.122;24.746;2023-12-07T01:16:19;23.77;;;15.90;;
2674;SDS011;1347;42.122;24.746;2023-12-07T01:18:46;24.77;;;17.43;;
2674;SDS011;1347;42.122;24.746;2023-12-07T01:21:13;25.90;;;17.63;;
2674;SDS011;1347;42.122;24.746;2023-12-07T01:23:39;25.97;;;17.23;;
2674;SDS011;1347;42.122;24.746;2023-12-07T01:26:08;27.33;;;17.60;;
2674;SDS011;1347;42.122;24.746;2023-12-07T01:28:34;25.77;;;16.97;;
2674;SDS011;1347;42.122;24.746;2023-12-07T01:31:01;25.83;;;17.97;;
2674;SDS011;1347;42.122;24.746;2023-12-07T01:33:29;25.73;;;16.97;;
2674;SDS011;1347;42.122;24.746;2023-12-07T01:35:56;26.00;;;18.23;;
2674;SDS011;1347;42.122;24.746;2023-12-07T01:38:22;21.00;;;16.10;;
2674;SDS011;1347;42.122;24.746;2023-12-07T01:40:49;25.73;;;17.80;;
2674;SDS011;1347;42.122;24.746;2023-12-07T01:43:18;29.00;;;19.50;;
2674;SDS011;1347;42.122;24.746;2023-12-07T01:45:46;23.30;;;15.27;;
2674;SDS011;1347;42.122;24.746;2023-12-07T01:48:13;21.53;;;17.17;;
2674;SDS011;1347;42.122;24.746;2023-12-07T01:50:40;25.47;;;17.20;;
2674;SDS011;1347;42.122;24.746;2023-12-07T01:53:07;24.13;;;16.47;;
2674;SDS011;1347;42.122;24.746;2023-12-07T01:55:35;23.80;;;17.60;;
2674;SDS011;1347;42.122;24.746;2023-12-07T01:58:02;24.97;;;16.80;;
2674;SDS011;1347;42.122;24.746;2023-12-07T02:00:31;24.63;;;17.40;;
2674;SDS011;1347;42.122;24.746;2023-12-07T02:03:00;25.37;;;16.80;;
2674;SDS011;1347;42.122;24.746;2023-12-07T02:05:29;24.00;;;16.73;;
2674;SDS011;1347;42.122;24.746;2023-12-07T02:07:57;22.77;;;16.83;;
2674;SDS011;1347;42.122;24.746;2023-12-07T02:10:24;24.90;;;16.10;;
2674;SDS011;1347;42.122;24.746;2023-12-07T02:12:51;21.23;;;15.60;;
2674;SDS011;1347;42.122;24.746;2023-12-07T02:15:19;22.57;;;17.37;;
2674;SDS011;1347;42.122;24.746;2023-12-07T02:17:49;21.03;;;15.53;;
2674;SDS011;1347;42.122;24.746;2023-12-07T02:20:24;24.37;;;16.30;;
2674;SDS011;1347;42.122;24.746;2023-12-07T02:22:56;19.97;;;14.43;;
2674;SDS011;1347;42.122;24.746;2023-12-07T02:25:36;20.30;;;15.07;;
2674;SDS011;1347;42.122;24.746;2023-12-07T02:28:08;22.90;;;15.50;;
2674;SDS011;1347;42.122;24.746;2023-12-07T02:30:35;22.40;;;16.67;;
2674;SDS011;1347;42.122;24.746;2023-12-07T02:33:01;22.73;;;16.27;;
2674;SDS011;1347;42.122;24.746;2023-12-07T02:35:30;31.73;;;19.20;;
2674;SDS011;1347;42.122;24.746;2023-12-07T02:37:58;22.80;;;16.63;;
2674;SDS011;1347;42.122;24.746;2023-12-07T02:40:26;22.53;;;16.43;;
2674;SDS011;1347;42.122;24.746;2023-12-07T02:42:54;25.37;;;17.53;;
2674;SDS011;1347;42.122;24.746;2023-12-07T02:45:23;24.87;;;17.93;;
2674;SDS011;1347;42.122;24.746;2023-12-07T02:47:50;26.40;;;17.30;;
2674;SDS011;1347;42.122;24.746;2023-12-07T02:50:18;22.47;;;17.73;;
2674;SDS011;1347;42.122;24.746;2023-12-07T02:52:44;23.17;;;16.50;;
2674;SDS011;1347;42.122;24.746;2023-12-07T02:55:11;26.00;;;16.60;;
2674;SDS011;1347;42.122;24.746;2023-12-07T02:57:38;26.77;;;17.20;;
2674;SDS011;1347;42.122;24.746;2023-12-07T03:00:05;25.50;;;17.30;;
2674;SDS011;1347;42.122;24.746;2023-12-07T03:02:34;21.63;;;16.20;;
2674;SDS011;1347;42.122;24.746;2023-12-07T03:05:04;28.13;;;18.00;;
2674;SDS011;1347;42.122;24.746;2023-12-07T03:07:32;22.30;;;16.50;;
2674;SDS011;1347;42.122;24.746;2023-12-07T03:09:59;21.47;;;14.63;;
2674;SDS011;1347;42.122;24.746;2023-12-07T03:12:26;19.83;;;15.03;;
2674;SDS011;1347;42.122;24.746;2023-12-07T03:14:53;26.90;;;16.97;;
2674;SDS011;1347;42.122;24.746;2023-12-07T03:17:19;27.23;;;18.03;;
2674;SDS011;1347;42.122;24.746;2023-12-07T03:19:48;27.17;;;18.30;;
2674;SDS011;1347;42.122;24.746;2023-12-07T03:22:14;33.13;;;19.50;;
2674;SDS011;1347;42.122;24.746;2023-12-07T03:24:44;29.90;;;19.40;;
2674;SDS011;1347;42.122;24.746;2023-12-07T03:27:12;28.97;;;18.10;;
2674;SDS011;1347;42.122;24.746;2023-12-07T03:29:39;29.33;;;19.00;;
2674;SDS011;1347;42.122;24.746;2023-12-07T03:32:06;31.77;;;18.90;;
2674;SDS011;1347;42.122;24.746;2023-12-07T03:34:33;31.50;;;20.63;;
2674;SDS011;1347;42.122;24.746;2023-12-07T03:37:01;31.10;;;20.80;;
2674;SDS011;1347;42.122;24.746;2023-12-07T03:39:28;33.27;;;21.37;;
2674;SDS011;1347;42.122;24.746;2023-12-07T03:41:57;35.50;;;21.50;;
2674;SDS011;1347;42.122;24.746;2023-12-07T03:44:24;32.70;;;20.83;;
2674;SDS011;1347;42.122;24.746;2023-12-07T03:46:52;29.10;;;19.20;;
2674;SDS011;1347;42.122;24.746;2023-12-07T03:49:18;30.60;;;21.53;;
2674;SDS011;1347;42.122;24.746;2023-12-07T03:51:45;28.73;;;19.37;;
2674;SDS011;1347;42.122;24.746;2023-12-07T03:54:13;29.47;;;19.67;;
2674;SDS011;1347;42.122;24.746;2023-12-07T03:56:40;28.00;;;21.37;;
2674;SDS011;1347;42.122;24.746;2023-12-07T03:59:07;37.63;;;24.37;;
2674;SDS011;1347;42.122;24.746;2023-12-07T04:01:34;40.67;;;27.60;;
2674;SDS011;1347;42.122;24.746;2023-12-07T04:04:01;50.77;;;31.60;;
2674;SDS011;1347;42.122;24.746;2023-12-07T04:06:28;39.93;;;29.03;;
2674;SDS011;1347;42.122;24.746;2023-12-07T04:08:54;45.30;;;30.17;;
2674;SDS011;1347;42.122;24.746;2023-12-07T04:11:23;45.20;;;29.50;;
2674;SDS011;1347;42.122;24.746;2023-12-07T04:13:49;45.27;;;29.03;;
2674;SDS011;1347;42.122;24.746;2023-12-07T04:16:16;46.13;;;32.00;;
2674;SDS011;1347;42.122;24.746;2023-12-07T04:18:43;45.60;;;32.77;;
2674;SDS011;1347;42.122;24.746;2023-12-07T04:21:10;46.67;;;31.90;;
2674;SDS011;1347;42.122;24.746;2023-12-07T04:23:37;47.53;;;32.60;;
2674;SDS011;1347;42.122;24.746;2023-12-07T04:26:04;49.20;;;31.57;;
2674;SDS011;1347;42.122;24.746;2023-12-07T04:28:32;43.83;;;30.57;;
2674;SDS011;1347;42.122;24.746;2023-12-07T04:30:59;51.10;;;32.47;;
2674;SDS011;1347;42.122;24.746;2023-12-07T04:33:25;52.87;;;30.50;;
2674;SDS011;1347;42.122;24.746;2023-12-07T04:35:52;49.70;;;30.60;;
2674;SDS011;1347;42.122;24.746;2023-12-07T04:38:19;47.57;;;30.80;;
2674;SDS011;1347;42.122;24.746;2023-12-07T04:40:46;48.80;;;31.10;;
2674;SDS011;1347;42.122;24.746;2023-12-07T04:43:13;52.50;;;31.93;;
2674;SDS011;1347;42.122;24.746;2023-12-07T04:45:41;52.53;;;30.07;;
2674;SDS011;1347;42.122;24.746;2023-12-07T04:48:08;53.17;;;32.30;;
2674;SDS011;1347;42.122;24.746;2023-12-07T04:50:34;52.80;;;30.13;;
2674;SDS011;1347;42.122;24.746;2023-12-07T04:53:01;54.43;;;31.53;;
2674;SDS011;1347;42.122;24.746;2023-12-07T04:55:28;50.13;;;29.53;;
2674;SDS011;1347;42.122;24.746;2023-12-07T04:57:55;53.00;;;32.40;;
2674;SDS011;1347;42.122;24.746;2023-12-07T05:00:22;45.40;;;29.77;;
2674;SDS011;1347;42.122;24.746;2023-12-07T05:02:50;54.87;;;33.90;;
2674;SDS011;1347;42.122;24.746;2023-12-07T05:05:17;52.13;;;31.10;;
2674;SDS011;1347;42.122;24.746;2023-12-07T05:07:44;57.50;;;32.17;;
2674;SDS011;1347;42.122;24.746;2023-12-07T05:10:11;44.43;;;31.70;;
2674;SDS011;1347;42.122;24.746;2023-12-07T05:16:00;58.43;;;30.27;;
2674;SDS011;1347;42.122;24.746;2023-12-07T05:21:50;44.53;;;27.00;;
2674;SDS011;1347;42.122;24.746;2023-12-07T05:24:16;49.37;;;29.37;;
2674;SDS011;1347;42.122;24.746;2023-12-07T05:26:44;47.27;;;31.30;;
2674;SDS011;1347;42.122;24.746;2023-12-07T05:29:12;56.73;;;33.20;;
2674;SDS011;1347;42.122;24.746;2023-12-07T05:31:39;51.87;;;32.20;;
2674;SDS011;1347;42.122;24.746;2023-12-07T05:34:07;52.73;;;33.50;;
2674;SDS011;1347;42.122;24.746;2023-12-07T05:36:34;49.60;;;30.53;;
2674;SDS011;1347;42.122;24.746;2023-12-07T05:39:02;51.10;;;31.67;;
2674;SDS011;1347;42.122;24.746;2023-12-07T05:41:32;52.00;;;32.50;;
2674;SDS011;1347;42.122;24.746;2023-12-07T05:43:59;48.67;;;31.53;;
2674;SDS011;1347;42.122;24.746;2023-12-07T05:46:26;51.70;;;32.13;;
2674;SDS011;1347;42.122;24.746;2023-12-07T05:48:54;51.83;;;33.00;;
2674;SDS011;1347;42.122;24.746;2023-12-07T05:51:22;56.90;;;33.00;;
2674;SDS011;1347;42.122;24.746;2023-12-07T05:53:49;56.60;;;34.27;;
2674;SDS011;1347;42.122;24.746;2023-12-07T05:56:19;58.50;;;38.57;;
2674;SDS011;1347;42.122;24.746;2023-12-07T05:58:46;55.77;;;36.37;;
2674;SDS011;1347;42.122;24.746;2023-12-07T06:01:16;57.47;;;37.27;;
2674;SDS011;1347;42.122;24.746;2023-12-07T06:03:44;57.07;;;36.10;;
2674;SDS011;1347;42.122;24.746;2023-12-07T06:06:11;64.70;;;38.27;;
2674;SDS011;1347;42.122;24.746;2023-12-07T06:08:38;60.37;;;37.30;;
2674;SDS011;1347;42.122;24.746;2023-12-07T06:11:05;54.60;;;38.63;;
2674;SDS011;1347;42.122;24.746;2023-12-07T06:13:33;61.63;;;41.60;;
2674;SDS011;1347;42.122;24.746;2023-12-07T06:16:00;66.30;;;43.77;;
2674;SDS011;1347;42.122;24.746;2023-12-07T06:18:28;60.97;;;41.20;;
2674;SDS011;1347;42.122;24.746;2023-12-07T06:20:55;65.60;;;43.30;;
2674;SDS011;1347;42.122;24.746;2023-12-07T06:23:22;67.03;;;43.10;;
2674;SDS011;1347;42.122;24.746;2023-12-07T06:25:48;64.17;;;43.30;;
2674;SDS011;1347;42.122;24.746;2023-12-07T06:28:15;67.67;;;44.70;;
2674;SDS011;1347;42.122;24.746;2023-12-07T06:30:44;60.23;;;42.90;;
2674;SDS011;1347;42.122;24.746;2023-12-07T06:33:11;59.50;;;42.40;;
2674;SDS011;1347;42.122;24.746;2023-12-07T06:35:38;56.40;;;40.37;;
2674;SDS011;1347;42.122;24.746;2023-12-07T06:38:05;62.43;;;41.20;;
2674;SDS011;1347;42.122;24.746;2023-12-07T06:40:32;64.70;;;41.87;;
2674;SDS011;1347;42.122;24.746;2023-12-07T06:42:59;64.20;;;45.00;;
2674;SDS011;1347;42.122;24.746;2023-12-07T06:45:26;67.63;;;43.87;;
2674;SDS011;1347;42.122;24.746;2023-12-07T06:47:54;67.63;;;46.50;;
2674;SDS011;1347;42.122;24.746;2023-12-07T06:50:21;88.70;;;55.27;;
2674;SDS011;1347;42.122;24.746;2023-12-07T06:52:48;83.20;;;54.77;;
2674;SDS011;1347;42.122;24.746;2023-12-07T06:55:15;70.07;;;51.80;;
2674;SDS011;1347;42.122;24.746;2023-12-07T06:57:42;67.00;;;46.87;;
2674;SDS011;1347;42.122;24.746;2023-12-07T07:00:09;71.37;;;48.83;;
2674;SDS011;1347;42.122;24.746;2023-12-07T07:02:37;68.87;;;47.47;;
2674;SDS011;1347;42.122;24.746;2023-12-07T07:05:06;73.17;;;49.97;;
2674;SDS011;1347;42.122;24.746;2023-12-07T07:07:34;67.07;;;45.60;;
2674;SDS011;1347;42.122;24.746;2023-12-07T07:10:01;61.10;;;40.23;;
2674;SDS011;1347;42.122;24.746;2023-12-07T07:12:28;61.20;;;41.50;;
2674;SDS011;1347;42.122;24.746;2023-12-07T07:14:55;55.73;;;40.87;;
2674;SDS011;1347;42.122;24.746;2023-12-07T07:17:22;59.97;;;42.63;;
2674;SDS011;1347;42.122;24.746;2023-12-07T07:19:49;77.13;;;43.50;;
2674;SDS011;1347;42.122;24.746;2023-12-07T07:22:17;62.03;;;44.87;;
2674;SDS011;1347;42.122;24.746;2023-12-07T07:24:45;56.80;;;41.50;;
2674;SDS011;1347;42.122;24.746;2023-12-07T07:27:12;54.30;;;42.07;;
2674;SDS011;1347;42.122;24.746;2023-12-07T07:29:38;52.73;;;40.73;;
2674;SDS011;1347;42.122;24.746;2023-12-07T07:32:05;54.77;;;38.80;;
2674;SDS011;1347;42.122;24.746;2023-12-07T07:34:33;49.57;;;32.83;;
2674;SDS011;1347;42.122;24.746;2023-12-07T07:36:59;50.63;;;36.60;;
2674;SDS011;1347;42.122;24.746;2023-12-07T07:39:28;49.10;;;37.93;;
2674;SDS011;1347;42.122;24.746;2023-12-07T07:41:55;44.87;;;34.60;;
2674;SDS011;1347;42.122;24.746;2023-12-07T07:44:21;39.17;;;31.60;;
2674;SDS011;1347;42.122;24.746;2023-12-07T07:46:48;46.33;;;31.97;;
2674;SDS011;1347;42.122;24.746;2023-12-07T07:49:15;38.53;;;29.77;;
2674;SDS011;1347;42.122;24.746;2023-12-07T07:51:42;44.20;;;30.33;;
2674;SDS011;1347;42.122;24.746;2023-12-07T07:54:09;38.10;;;27.30;;
2674;SDS011;1347;42.122;24.746;2023-12-07T07:56:37;35.17;;;26.87;;
2674;SDS011;1347;42.122;24.746;2023-12-07T07:59:04;31.77;;;24.87;;
2674;SDS011;1347;42.122;24.746;2023-12-07T08:01:31;32.10;;;25.07;;
2674;SDS011;1347;42.122;24.746;2023-12-07T08:03:57;29.50;;;22.93;;
2674;SDS011;1347;42.122;24.746;2023-12-07T08:06:24;28.40;;;23.23;;
2674;SDS011;1347;42.122;24.746;2023-12-07T08:08:51;25.83;;;21.50;;
2674;SDS011;1347;42.122;24.746;2023-12-07T08:11:18;24.83;;;20.40;;
2674;SDS011;1347;42.122;24.746;2023-12-07T08:13:46;26.90;;;23.27;;
2674;SDS011;1347;42.122;24.746;2023-12-07T08:16:13;32.20;;;23.37;;
2674;SDS011;1347;42.122;24.746;2023-12-07T08:18:40;31.37;;;25.07;;
2674;SDS011;1347;42.122;24.746;2023-12-07T08:21:07;32.40;;;25.97;;
2674;SDS011;1347;42.122;24.746;2023-12-07T08:23:34;36.97;;;27.60;;
2674;SDS011;1347;42.122;24.746;2023-12-07T08:26:01;35.67;;;29.03;;
2674;SDS011;1347;42.122;24.746;2023-12-07T08:28:28;38.47;;;30.17;;
2674;SDS011;1347;42.122;24.746;2023-12-07T08:30:56;40.83;;;30.17;;
2674;SDS011;1347;42.122;24.746;2023-12-07T08:33:23;39.80;;;28.90;;
2674;SDS011;1347;42.122;24.746;2023-12-07T08:35:50;36.43;;;28.80;;
2674;SDS011;1347;42.122;24.746;2023-12-07T08:38:19;38.97;;;30.40;;
2674;SDS011;1347;42.122;24.746;2023-12-07T08:40:48;32.50;;;28.33;;
2674;SDS011;1347;42.122;24.746;2023-12-07T08:43:15;37.73;;;28.13;;
2674;SDS011;1347;42.122;24.746;2023-12-07T08:45:41;38.93;;;28.47;;
2674;SDS011;1347;42.122;24.746;2023-12-07T08:48:10;31.17;;;24.83;;
2674;SDS011;1347;42.122;24.746;2023-12-07T08:50:36;30.40;;;24.07;;
2674;SDS011;1347;42.122;24.746;2023-12-07T08:53:03;30.23;;;25.10;;
2674;SDS011;1347;42.122;24.746;2023-12-07T08:55:30;26.87;;;21.80;;
2674;SDS011;1347;42.122;24.746;2023-12-07T08:57:57;25.40;;;22.60;;
2674;SDS011;1347;42.122;24.746;2023-12-07T09:00:25;28.37;;;23.63;;
2674;SDS011;1347;42.122;24.746;2023-12-07T09:02:52;35.03;;;27.00;;
2674;SDS011;1347;42.122;24.746;2023-12-07T09:05:20;38.13;;;27.17;;
2674;SDS011;1347;42.122;24.746;2023-12-07T09:10:36;33.20;;;25.33;;
2674;SDS011;1347;42.122;24.746;2023-12-07T09:16:24;23.83;;;18.33;;
2674;SDS011;1347;42.122;24.746;2023-12-07T09:18:51;23.43;;;17.97;;
2674;SDS011;1347;42.122;24.746;2023-12-07T09:21:20;24.67;;;20.20;;
2674;SDS011;1347;42.122;24.746;2023-12-07T09:23:47;26.60;;;21.87;;
2674;SDS011;1347;42.122;24.746;2023-12-07T09:26:14;26.77;;;21.50;;
2674;SDS011;1347;42.122;24.746;2023-12-07T09:28:40;24.33;;;19.97;;
2674;SDS011;1347;42.122;24.746;2023-12-07T09:31:07;26.63;;;20.70;;
2674;SDS011;1347;42.122;24.746;2023-12-07T09:33:34;24.47;;;20.73;;
2674;SDS011;1347;42.122;24.746;2023-12-07T09:36:01;23.37;;;20.80;;
2674;SDS011;1347;42.122;24.746;2023-12-07T09:38:30;25.43;;;22.73;;
2674;SDS011;1347;42.122;24.746;2023-12-07T09:40:57;28.23;;;21.00;;
2674;SDS011;1347;42.122;24.746;2023-12-07T09:43:23;24.70;;;20.90;;
2674;SDS011;1347;42.122;24.746;2023-12-07T09:45:50;29.90;;;23.40;;
2674;SDS011;1347;42.122;24.746;2023-12-07T09:48:21;25.37;;;18.40;;
2674;SDS011;1347;42.122;24.746;2023-12-07T09:50:50;24.37;;;20.80;;
2674;SDS011;1347;42.122;24.746;2023-12-07T09:53:21;33.10;;;24.20;;
2674;SDS011;1347;42.122;24.746;2023-12-07T09:55:50;25.10;;;20.10;;
2674;SDS011;1347;42.122;24.746;2023-12-07T09:58:17;23.97;;;18.73;;
2674;SDS011;1347;42.122;24.746;2023-12-07T10:00:44;20.87;;;18.70;;
2674;SDS011;1347;42.122;24.746;2023-12-07T10:03:20;25.13;;;18.97;;
2674;SDS011;1347;42.122;24.746;2023-12-07T10:05:54;20.93;;;18.43;;
2674;SDS011;1347;42.122;24.746;2023-12-07T10:08:27;28.10;;;19.57;;
2674;SDS011;1347;42.122;24.746;2023-12-07T10:11:02;25.90;;;19.60;;
2674;SDS011;1347;42.122;24.746;2023-12-07T10:13:31;23.13;;;18.33;;
2674;SDS011;1347;42.122;24.746;2023-12-07T10:16:10;23.17;;;19.23;;
2674;SDS011;1347;42.122;24.746;2023-12-07T10:18:39;23.13;;;19.23;;
2674;SDS011;1347;42.122;24.746;2023-12-07T10:21:07;24.87;;;20.33;;
2674;SDS011;1347;42.122;24.746;2023-12-07T10:23:35;25.47;;;20.87;;
2674;SDS011;1347;42.122;24.746;2023-12-07T10:26:04;26.73;;;20.87;;
2674;SDS011;1347;42.122;24.746;2023-12-07T10:28:33;25.50;;;20.23;;
2674;SDS011;1347;42.122;24.746;2023-12-07T10:31:02;27.60;;;19.07;;
2674;SDS011;1347;42.122;24.746;2023-12-07T10:33:29;23.00;;;17.70;;
2674;SDS011;1347;42.122;24.746;2023-12-07T10:35:55;18.90;;;16.90;;
2674;SDS011;1347;42.122;24.746;2023-12-07T10:38:22;21.70;;;17.87;;
2674;SDS011;1347;42.122;24.746;2023-12-07T10:40:49;23.30;;;18.07;;
2674;SDS011;1347;42.122;24.746;2023-12-07T10:43:28;21.40;;;15.80;;
2674;SDS011;1347;42.122;24.746;2023-12-07T10:45:58;18.83;;;16.00;;
2674;SDS011;1347;42.122;24.746;2023-12-07T10:48:25;23.67;;;17.37;;
2674;SDS011;1347;42.122;24.746;2023-12-07T10:50:53;21.30;;;16.40;;
2674;SDS011;1347;42.122;24.746;2023-12-07T10:53:26;21.57;;;16.37;;
2674;SDS011;1347;42.122;24.746;2023-12-07T10:55:56;22.77;;;17.70;;
2674;SDS011;1347;42.122;24.746;2023-12-07T10:58:27;27.20;;;17.47;;
2674;SDS011;1347;42.122;24.746;2023-12-07T11:00:55;20.30;;;15.80;;
2674;SDS011;1347;42.122;24.746;2023-12-07T11:03:23;21.57;;;15.50;;
2674;SDS011;1347;42.122;24.746;2023-12-07T11:05:50;17.27;;;15.23;;
2674;SDS011;1347;42.122;24.746;2023-12-07T11:08:19;21.73;;;15.37;;
2674;SDS011;1347;42.122;24.746;2023-12-07T11:10:58;22.40;;;15.10;;
2674;SDS011;1347;42.122;24.746;2023-12-07T11:13:33;22.40;;;15.60;;
2674;SDS011;1347;42.122;24.746;2023-12-07T11:16:02;17.57;;;13.13;;
2674;SDS011;1347;42.122;24.746;2023-12-07T11:18:30;17.37;;;14.37;;
2674;SDS011;1347;42.122;24.746;2023-12-07T11:20:57;16.13;;;14.27;;
2674;SDS011;1347;42.122;24.746;2023-12-07T11:23:26;18.33;;;16.43;;
2674;SDS011;1347;42.122;24.746;2023-12-07T11:25:54;20.90;;;14.80;;
2674;SDS011;1347;42.122;24.746;2023-12-07T11:28:34;18.20;;;14.07;;
2674;SDS011;1347;42.122;24.746;2023-12-07T11:31:02;17.80;;;14.80;;
2674;SDS011;1347;42.122;24.746;2023-12-07T11:33:29;19.37;;;14.63;;
2674;SDS011;1347;42.122;24.746;2023-12-07T11:36:03;19.70;;;15.80;;
2674;SDS011;1347;42.122;24.746;2023-12-07T11:38:31;17.20;;;14.37;;
2674;SDS011;1347;42.122;24.746;2023-12-07T11:40:57;20.47;;;14.63;;
2674;SDS011;1347;42.122;24.746;2023-12-07T11:43:42;20.60;;;15.67;;
2674;SDS011;1347;42.122;24.746;2023-12-07T11:46:11;19.30;;;15.20;;
2674;SDS011;1347;42.122;24.746;2023-12-07T11:48:39;23.20;;;14.70;;
2674;SDS011;1347;42.122;24.746;2023-12-07T11:51:07;18.83;;;15.03;;
2674;SDS011;1347;42.122;24.746;2023-12-07T11:53:34;20.30;;;15.27;;
2674;SDS011;1347;42.122;24.746;2023-12-07T11:56:02;17.20;;;13.80;;
2674;SDS011;1347;42.122;24.746;2023-12-07T11:58:31;20.43;;;14.00;;
2674;SDS011;1347;42.122;24.746;2023-12-07T12:01:00;19.97;;;15.07;;
2674;SDS011;1347;42.122;24.746;2023-12-07T12:03:28;19.73;;;13.70;;
2674;SDS011;1347;42.122;24.746;2023-12-07T12:05:57;17.37;;;14.00;;
2674;SDS011;1347;42.122;24.746;2023-12-07T12:08:24;20.87;;;13.90;;
2674;SDS011;1347;42.122;24.746;2023-12-07T12:10:51;18.73;;;14.30;;
2674;SDS011;1347;42.122;24.746;2023-12-07T12:16:45;18.60;;;13.47;;
2674;SDS011;1347;42.122;24.746;2023-12-07T12:19:13;22.13;;;14.70;;
2674;SDS011;1347;42.122;24.746;2023-12-07T12:21:40;19.33;;;14.10;;
2674;SDS011;1347;42.122;24.746;2023-12-07T12:24:08;17.53;;;12.83;;
2674;SDS011;1347;42.122;24.746;2023-12-07T12:26:37;18.90;;;14.47;;
2674;SDS011;1347;42.122;24.746;2023-12-07T12:29:06;16.67;;;13.43;;
2674;SDS011;1347;42.122;24.746;2023-12-07T12:31:34;18.93;;;15.70;;
2674;SDS011;1347;42.122;24.746;2023-12-07T12:34:03;18.20;;;12.73;;
2674;SDS011;1347;42.122;24.746;2023-12-07T12:36:32;18.53;;;14.13;;
2674;SDS011;1347;42.122;24.746;2023-12-07T12:38:59;24.53;;;15.93;;
2674;SDS011;1347;42.122;24.746;2023-12-07T12:41:27;22.37;;;16.97;;
2674;SDS011;1347;42.122;24.746;2023-12-07T12:43:56;19.10;;;14.73;;
2674;SDS011;1347;42.122;24.746;2023-12-07T12:46:24;19.40;;;14.80;;
2674;SDS011;1347;42.122;24.746;2023-12-07T12:48:54;20.20;;;13.83;;
2674;SDS011;1347;42.122;24.746;2023-12-07T12:51:23;17.73;;;14.50;;
2674;SDS011;1347;42.122;24.746;2023-12-07T12:53:53;24.63;;;15.10;;
2674;SDS011;1347;42.122;24.746;2023-12-07T12:56:21;17.23;;;13.60;;
2674;SDS011;1347;42.122;24.746;2023-12-07T12:58:49;18.40;;;13.67;;
2674;SDS011;1347;42.122;24.746;2023-12-07T13:01:16;18.07;;;15.20;;
2674;SDS011;1347;42.122;24.746;2023-12-07T13:03:44;17.93;;;15.40;;
2674;SDS011;1347;42.122;24.746;2023-12-07T13:06:12;20.87;;;16.50;;
2674;SDS011;1347;42.122;24.746;2023-12-07T13:08:40;19.93;;;15.37;;
2674;SDS011;1347;42.122;24.746;2023-12-07T13:11:08;19.43;;;15.00;;
2674;SDS011;1347;42.122;24.746;2023-12-07T13:13:35;21.00;;;16.13;;
2674;SDS011;1347;42.122;24.746;2023-12-07T13:19:24;20.23;;;14.27;;
2674;SDS011;1347;42.122;24.746;2023-12-07T13:21:51;25.67;;;17.47;;
2674;SDS011;1347;42.122;24.746;2023-12-07T13:24:19;19.00;;;14.93;;
2674;SDS011;1347;42.122;24.746;2023-12-07T13:26:46;20.13;;;13.37;;
2674;SDS011;1347;42.122;24.746;2023-12-07T13:29:13;18.13;;;14.67;;
2674;SDS011;1347;42.122;24.746;2023-12-07T13:31:40;19.43;;;14.87;;
2674;SDS011;1347;42.122;24.746;2023-12-07T13:34:07;18.70;;;14.50;;
2674;SDS011;1347;42.122;24.746;2023-12-07T13:36:34;23.27;;;15.73;;
2674;SDS011;1347;42.122;24.746;2023-12-07T13:39:01;24.13;;;17.87;;
2674;SDS011;1347;42.122;24.746;2023-12-07T13:41:30;40.17;;;30.87;;
2674;SDS011;1347;42.122;24.746;2023-12-07T13:43:58;60.07;;;45.00;;
2674;SDS011;1347;42.122;24.746;2023-12-07T13:46:26;40.10;;;33.07;;
2674;SDS011;1347;42.122;24.746;2023-12-07T13:48:53;52.47;;;39.00;;
2674;SDS011;1347;42.122;24.746;2023-12-07T13:51:20;43.83;;;36.73;;
2674;SDS011;1347;42.122;24.746;2023-12-07T13:53:48;47.93;;;39.40;;
2674;SDS011;1347;42.122;24.746;2023-12-07T13:56:20;49.90;;;40.30;;
2674;SDS011;1347;42.122;24.746;2023-12-07T13:58:49;57.93;;;47.90;;
2674;SDS011;1347;42.122;24.746;2023-12-07T14:01:16;45.03;;;37.30;;
2674;SDS011;1347;42.122;24.746;2023-12-07T14:03:43;48.33;;;38.30;;
2674;SDS011;1347;42.122;24.746;2023-12-07T14:06:10;53.67;;;42.33;;
2674;SDS011;1347;42.122;24.746;2023-12-07T14:08:39;51.47;;;40.60;;
2674;SDS011;1347;42.122;24.746;2023-12-07T14:11:06;55.47;;;44.77;;
2674;SDS011;1347;42.122;24.746;2023-12-07T14:13:33;47.97;;;37.63;;
2674;SDS011;1347;42.122;24.746;2023-12-07T14:16:01;56.07;;;41.17;;
2674;SDS011;1347;42.122;24.746;2023-12-07T14:18:28;52.17;;;39.97;;
2674;SDS011;1347;42.122;24.746;2023-12-07T14:20:54;49.07;;;39.53;;
2674;SDS011;1347;42.122;24.746;2023-12-07T14:23:21;53.60;;;42.50;;
2674;SDS011;1347;42.122;24.746;2023-12-07T14:25:48;53.20;;;42.00;;
2674;SDS011;1347;42.122;24.746;2023-12-07T14:28:16;56.07;;;40.47;;
2674;SDS011;1347;42.122;24.746;2023-12-07T14:30:44;55.20;;;37.27;;
2674;SDS011;1347;42.122;24.746;2023-12-07T14:33:12;55.93;;;35.33;;
2674;SDS011;1347;42.122;24.746;2023-12-07T14:35:39;45.70;;;30.93;;
2674;SDS011;1347;42.122;24.746;2023-12-07T14:38:05;40.80;;;24.57;;
2674;SDS011;1347;42.122;24.746;2023-12-07T14:40:32;29.93;;;20.47;;
2674;SDS011;1347;42.122;24.746;2023-12-07T14:43:00;33.43;;;21.43;;
2674;SDS011;1347;42.122;24.746;2023-12-07T14:45:28;36.53;;;23.83;;
2674;SDS011;1347;42.122;24.746;2023-12-07T14:51:18;33.93;;;23.10;;
2674;SDS011;1347;42.122;24.746;2023-12-07T14:57:07;35.23;;;24.47;;
2674;SDS011;1347;42.122;24.746;2023-12-07T14:59:35;36.67;;;23.90;;
2674;SDS011;1347;42.122;24.746;2023-12-07T15:02:02;33.60;;;23.47;;